Eagle, CO (81631)

2:41 AM MST on February 11, 2016 (GMT -0700)
Eagle County Regional | | Change Station
CLOSE
Current Station
Airport
Location: Eagle,
Elevation: 6539 ft
Nearby Weather Stations

Elev 6539 ft 39.64 °N, 106.91 °W | Updated 6 minutes ago

Clear
Clear
16 °F
Feels Like 16 °F
N
0
Wind Variable Wind from North

Today
High -- | Low -- °F
--% Chance of Precip.
Yesterday
High -- | Low -- °F
Precip. -- in
Pressure 30.44 in
Visibility 10.0 miles
Clouds Clear
Dew Point 12 °F
Humidity 86%
Rainfall 0.00 in
Snow Depth Not available.
7:05 AM 5:38 PM
Waxing Crescent, 10% visible
METAR KEGE 110935Z AUTO 00000KT 10SM CLR M09/M11 A3044 RMK AO1
Pressure 30.44 in
Visibility 10.0 miles
Clouds Clear
Dew Point 12 °F
Humidity 86%
Rainfall 0.00 in
Snow Depth Not available.
7:05 AM 5:38 PM
Waxing Crescent, 10% visible
METAR KEGE 110935Z AUTO 00000KT 10SM CLR M09/M11 A3044 RMK AO1

10-Day Weather Forecast

Almanac

Astronomy

Feb. 11, 2016 Rise Set
Actual Time
Civil Twilight
Nautical Twilight
Astronomical Twilight
Moon
Length of Visible Light
Length of Day
Tomorrow will be .
, % of the Moon is Illuminated

Today's Extremes

State Highs State Lows

Community

WunderPhotos

Upload Photos

1,892,030 photos uploaded!

WunderBlog® & News

Nearby

Air Quality

  Air Quality AQ Index Pollutant
Not available.

Snow Depth

Station Depth Elevation

Earthquake Activity

City Distance Mag. Time & Date
Minimum magnitude displayed is 2.5.

Coastal Water Temperatures

Place Temperature

Stations

Nearby Weather Stations

Station Location Temp. Windchill Dew Point Humidity Wind Precip. Elev Updated Type
                   

Watches & Warnings

There are currently no watches in effect.